sensor_id;sensor_type;location;lat;lon;timestamp;temperature;humidity
49793;DHT22;35690;37.536;-122.304;2022-07-29T00:02:18;31.90;37.40
49793;DHT22;35690;37.536;-122.304;2022-07-29T00:04:44;32.00;37.40
49793;DHT22;35690;37.536;-122.304;2022-07-29T00:07:11;31.90;37.40
49793;DHT22;35690;37.536;-122.304;2022-07-29T00:09:38;31.80;37.50
49793;DHT22;35690;37.536;-122.304;2022-07-29T00:12:05;31.70;37.50
49793;DHT22;35690;37.536;-122.304;2022-07-29T00:14:31;31.80;37.40
49793;DHT22;35690;37.536;-122.304;2022-07-29T00:16:57;31.90;37.50
49793;DHT22;35690;37.536;-122.304;2022-07-29T00:19:24;31.90;37.50
49793;DHT22;35690;37.536;-122.304;2022-07-29T00:21:50;31.80;37.50
49793;DHT22;35690;37.536;-122.304;2022-07-29T00:24:17;31.90;37.50
49793;DHT22;35690;37.536;-122.304;2022-07-29T00:26:43;31.80;37.60
49793;DHT22;35690;37.536;-122.304;2022-07-29T00:29:09;31.80;37.70
49793;DHT22;35690;37.536;-122.304;2022-07-29T00:31:36;31.70;37.90
49793;DHT22;35690;37.536;-122.304;2022-07-29T00:34:02;31.60;37.90
49793;DHT22;35690;37.536;-122.304;2022-07-29T00:36:29;31.60;38.10
49793;DHT22;35690;37.536;-122.304;2022-07-29T00:38:55;31.50;38.20
49793;DHT22;35690;37.536;-122.304;2022-07-29T00:41:22;31.40;38.30
49793;DHT22;35690;37.536;-122.304;2022-07-29T00:43:48;31.20;38.40
49793;DHT22;35690;37.536;-122.304;2022-07-29T00:46:14;31.10;38.40
49793;DHT22;35690;37.536;-122.304;2022-07-29T00:48:41;31.10;38.60
49793;DHT22;35690;37.536;-122.304;2022-07-29T00:51:10;31.00;38.60
49793;DHT22;35690;37.536;-122.304;2022-07-29T00:53:37;31.00;38.60
49793;DHT22;35690;37.536;-122.304;2022-07-29T00:56:04;31.00;38.50
49793;DHT22;35690;37.536;-122.304;2022-07-29T00:58:31;31.00;38.60
49793;DHT22;35690;37.536;-122.304;2022-07-29T01:00:58;31.00;38.70
49793;DHT22;35690;37.536;-122.304;2022-07-29T01:03:24;31.00;38.60
49793;DHT22;35690;37.536;-122.304;2022-07-29T01:05:51;31.00;38.80
49793;DHT22;35690;37.536;-122.304;2022-07-29T01:08:19;31.00;38.80
49793;DHT22;35690;37.536;-122.304;2022-07-29T01:10:46;30.90;38.90
49793;DHT22;35690;37.536;-122.304;2022-07-29T01:13:14;30.80;38.90
49793;DHT22;35690;37.536;-122.304;2022-07-29T01:15:46;30.80;39.10
49793;DHT22;35690;37.536;-122.304;2022-07-29T01:18:24;30.80;39.20
49793;DHT22;35690;37.536;-122.304;2022-07-29T01:21:23;30.70;39.20
49793;DHT22;35690;37.536;-122.304;2022-07-29T01:27:04;30.40;39.40
49793;DHT22;35690;37.536;-122.304;2022-07-29T01:29:47;30.20;39.50
49793;DHT22;35690;37.536;-122.304;2022-07-29T01:32:26;30.10;39.60
49793;DHT22;35690;37.536;-122.304;2022-07-29T01:38:01;30.10;39.60
49793;DHT22;35690;37.536;-122.304;2022-07-29T01:43:16;29.80;39.90
49793;DHT22;35690;37.536;-122.304;2022-07-29T01:46:13;29.90;40.00
49793;DHT22;35690;37.536;-122.304;2022-07-29T01:48:48;29.70;39.90
49793;DHT22;35690;37.536;-122.304;2022-07-29T01:51:19;29.70;40.10
49793;DHT22;35690;37.536;-122.304;2022-07-29T01:56:23;29.60;40.40
49793;DHT22;35690;37.536;-122.304;2022-07-29T01:58:54;29.40;40.30
49793;DHT22;35690;37.536;-122.304;2022-07-29T02:01:21;29.40;40.30
49793;DHT22;35690;37.536;-122.304;2022-07-29T02:03:50;29.20;40.50
49793;DHT22;35690;37.536;-122.304;2022-07-29T02:06:21;29.20;40.60
49793;DHT22;35690;37.536;-122.304;2022-07-29T02:08:49;29.00;40.70
49793;DHT22;35690;37.536;-122.304;2022-07-29T02:11:17;28.90;40.50
49793;DHT22;35690;37.536;-122.304;2022-07-29T02:13:44;28.90;40.90
49793;DHT22;35690;37.536;-122.304;2022-07-29T02:16:11;28.90;40.80
49793;DHT22;35690;37.536;-122.304;2022-07-29T02:18:40;28.80;41.10
49793;DHT22;35690;37.536;-122.304;2022-07-29T02:21:10;28.70;41.00
49793;DHT22;35690;37.536;-122.304;2022-07-29T02:23:39;28.60;41.20
49793;DHT22;35690;37.536;-122.304;2022-07-29T02:26:06;28.50;41.10
49793;DHT22;35690;37.536;-122.304;2022-07-29T02:28:34;28.50;41.20
49793;DHT22;35690;37.536;-122.304;2022-07-29T02:31:02;28.40;41.20
49793;DHT22;35690;37.536;-122.304;2022-07-29T02:33:30;28.30;41.50
49793;DHT22;35690;37.536;-122.304;2022-07-29T02:35:58;28.30;41.40
49793;DHT22;35690;37.536;-122.304;2022-07-29T02:38:25;28.20;41.30
49793;DHT22;35690;37.536;-122.304;2022-07-29T02:41:15;28.10;41.30
49793;DHT22;35690;37.536;-122.304;2022-07-29T02:43:43;28.00;41.70
49793;DHT22;35690;37.536;-122.304;2022-07-29T02:46:17;27.80;41.90
49793;DHT22;35690;37.536;-122.304;2022-07-29T02:48:55;27.80;41.60
49793;DHT22;35690;37.536;-122.304;2022-07-29T02:51:41;27.80;41.40
49793;DHT22;35690;37.536;-122.304;2022-07-29T02:54:09;27.60;41.50
49793;DHT22;35690;37.536;-122.304;2022-07-29T02:56:37;27.60;41.50
49793;DHT22;35690;37.536;-122.304;2022-07-29T02:59:10;27.50;41.70
49793;DHT22;35690;37.536;-122.304;2022-07-29T03:01:41;27.50;41.70
49793;DHT22;35690;37.536;-122.304;2022-07-29T03:04:11;27.40;41.60
49793;DHT22;35690;37.536;-122.304;2022-07-29T03:06:39;27.40;41.80
49793;DHT22;35690;37.536;-122.304;2022-07-29T03:09:10;27.40;41.80
49793;DHT22;35690;37.536;-122.304;2022-07-29T03:11:39;27.30;41.70
49793;DHT22;35690;37.536;-122.304;2022-07-29T03:14:07;27.20;41.80
49793;DHT22;35690;37.536;-122.304;2022-07-29T03:16:34;27.20;41.90
49793;DHT22;35690;37.536;-122.304;2022-07-29T03:19:03;27.20;41.60
49793;DHT22;35690;37.536;-122.304;2022-07-29T03:21:31;27.00;41.70
49793;DHT22;35690;37.536;-122.304;2022-07-29T03:23:57;26.90;41.50
49793;DHT22;35690;37.536;-122.304;2022-07-29T03:26:24;26.90;41.70
49793;DHT22;35690;37.536;-122.304;2022-07-29T03:28:50;26.90;41.80
49793;DHT22;35690;37.536;-122.304;2022-07-29T03:31:17;26.90;41.80
49793;DHT22;35690;37.536;-122.304;2022-07-29T03:33:43;26.80;42.10
49793;DHT22;35690;37.536;-122.304;2022-07-29T03:36:09;26.70;42.10
49793;DHT22;35690;37.536;-122.304;2022-07-29T03:38:36;26.60;42.00
49793;DHT22;35690;37.536;-122.304;2022-07-29T03:41:07;26.60;42.20
49793;DHT22;35690;37.536;-122.304;2022-07-29T03:43:38;26.50;42.40
49793;DHT22;35690;37.536;-122.304;2022-07-29T03:46:09;26.40;42.50
49793;DHT22;35690;37.536;-122.304;2022-07-29T03:48:39;26.30;42.80
49793;DHT22;35690;37.536;-122.304;2022-07-29T03:51:08;26.20;42.90
49793;DHT22;35690;37.536;-122.304;2022-07-29T03:53:34;26.20;42.60
49793;DHT22;35690;37.536;-122.304;2022-07-29T03:56:03;26.10;43.00
49793;DHT22;35690;37.536;-122.304;2022-07-29T03:58:31;26.10;43.10
49793;DHT22;35690;37.536;-122.304;2022-07-29T04:00:59;26.00;43.30
49793;DHT22;35690;37.536;-122.304;2022-07-29T04:03:25;25.90;43.50
49793;DHT22;35690;37.536;-122.304;2022-07-29T04:06:00;25.90;43.30
49793;DHT22;35690;37.536;-122.304;2022-07-29T04:08:27;25.80;43.30
49793;DHT22;35690;37.536;-122.304;2022-07-29T04:10:53;25.80;43.40
49793;DHT22;35690;37.536;-122.304;2022-07-29T04:13:20;25.80;43.50
49793;DHT22;35690;37.536;-122.304;2022-07-29T04:15:47;25.70;43.70
49793;DHT22;35690;37.536;-122.304;2022-07-29T04:18:14;25.60;43.80
49793;DHT22;35690;37.536;-122.304;2022-07-29T04:20:41;25.60;44.30
49793;DHT22;35690;37.536;-122.304;2022-07-29T04:23:07;25.60;43.70
49793;DHT22;35690;37.536;-122.304;2022-07-29T04:25:37;25.60;43.90
49793;DHT22;35690;37.536;-122.304;2022-07-29T04:28:05;25.40;44.10
49793;DHT22;35690;37.536;-122.304;2022-07-29T04:30:33;25.40;44.10
49793;DHT22;35690;37.536;-122.304;2022-07-29T04:33:01;25.30;44.10
49793;DHT22;35690;37.536;-122.304;2022-07-29T04:35:29;25.20;44.50
49793;DHT22;35690;37.536;-122.304;2022-07-29T04:37:56;25.20;44.60
49793;DHT22;35690;37.536;-122.304;2022-07-29T04:40:22;25.20;44.60
49793;DHT22;35690;37.536;-122.304;2022-07-29T04:42:49;25.20;44.50
49793;DHT22;35690;37.536;-122.304;2022-07-29T04:45:15;25.20;44.70
49793;DHT22;35690;37.536;-122.304;2022-07-29T04:47:42;25.00;44.80
49793;DHT22;35690;37.536;-122.304;2022-07-29T04:50:09;25.10;44.80
49793;DHT22;35690;37.536;-122.304;2022-07-29T04:52:36;25.00;44.70
49793;DHT22;35690;37.536;-122.304;2022-07-29T04:55:04;25.10;44.80
49793;DHT22;35690;37.536;-122.304;2022-07-29T04:57:31;25.00;44.70
49793;DHT22;35690;37.536;-122.304;2022-07-29T04:59:58;25.00;44.90
49793;DHT22;35690;37.536;-122.304;2022-07-29T05:02:24;24.90;44.90
49793;DHT22;35690;37.536;-122.304;2022-07-29T05:04:51;24.80;45.00
49793;DHT22;35690;37.536;-122.304;2022-07-29T05:07:17;24.70;45.40
49793;DHT22;35690;37.536;-122.304;2022-07-29T05:09:45;24.80;45.30
49793;DHT22;35690;37.536;-122.304;2022-07-29T05:12:12;24.60;45.50
49793;DHT22;35690;37.536;-122.304;2022-07-29T05:14:38;24.60;45.70
49793;DHT22;35690;37.536;-122.304;2022-07-29T05:17:05;24.60;45.60
49793;DHT22;35690;37.536;-122.304;2022-07-29T05:19:31;24.60;45.70
49793;DHT22;35690;37.536;-122.304;2022-07-29T05:21:58;24.70;45.70
49793;DHT22;35690;37.536;-122.304;2022-07-29T05:24:27;24.60;45.60
49793;DHT22;35690;37.536;-122.304;2022-07-29T05:26:53;24.60;45.40
49793;DHT22;35690;37.536;-122.304;2022-07-29T05:29:20;24.60;46.10
49793;DHT22;35690;37.536;-122.304;2022-07-29T05:31:46;24.50;45.70
49793;DHT22;35690;37.536;-122.304;2022-07-29T05:34:12;24.60;45.90
49793;DHT22;35690;37.536;-122.304;2022-07-29T05:36:39;24.60;45.50
49793;DHT22;35690;37.536;-122.304;2022-07-29T05:39:05;24.50;46.00
49793;DHT22;35690;37.536;-122.304;2022-07-29T05:41:32;24.50;45.70
49793;DHT22;35690;37.536;-122.304;2022-07-29T05:43:58;24.50;45.70
49793;DHT22;35690;37.536;-122.304;2022-07-29T05:46:25;24.50;45.90
49793;DHT22;35690;37.536;-122.304;2022-07-29T05:48:52;24.40;46.00
49793;DHT22;35690;37.536;-122.304;2022-07-29T05:51:18;24.40;46.20
49793;DHT22;35690;37.536;-122.304;2022-07-29T05:53:44;24.50;46.20
49793;DHT22;35690;37.536;-122.304;2022-07-29T05:56:11;24.30;46.20
49793;DHT22;35690;37.536;-122.304;2022-07-29T05:58:37;24.40;46.30
49793;DHT22;35690;37.536;-122.304;2022-07-29T06:01:04;24.40;46.20
49793;DHT22;35690;37.536;-122.304;2022-07-29T06:03:30;24.30;46.20
49793;DHT22;35690;37.536;-122.304;2022-07-29T06:05:57;24.30;46.10
49793;DHT22;35690;37.536;-122.304;2022-07-29T06:08:23;24.30;46.40
49793;DHT22;35690;37.536;-122.304;2022-07-29T06:10:50;24.30;46.30
49793;DHT22;35690;37.536;-122.304;2022-07-29T06:13:16;24.20;46.40
49793;DHT22;35690;37.536;-122.304;2022-07-29T06:15:43;24.20;46.50
49793;DHT22;35690;37.536;-122.304;2022-07-29T06:18:10;24.20;46.80
49793;DHT22;35690;37.536;-122.304;2022-07-29T06:20:39;24.20;46.70
49793;DHT22;35690;37.536;-122.304;2022-07-29T06:23:05;24.10;46.70
49793;DHT22;35690;37.536;-122.304;2022-07-29T06:25:32;24.20;46.70
49793;DHT22;35690;37.536;-122.304;2022-07-29T06:28:00;24.20;47.00
49793;DHT22;35690;37.536;-122.304;2022-07-29T06:30:27;24.20;46.60
49793;DHT22;35690;37.536;-122.304;2022-07-29T06:32:54;24.20;46.90
49793;DHT22;35690;37.536;-122.304;2022-07-29T06:35:21;24.10;46.70
49793;DHT22;35690;37.536;-122.304;2022-07-29T06:37:47;24.10;47.00
49793;DHT22;35690;37.536;-122.304;2022-07-29T06:40:14;24.20;46.90
49793;DHT22;35690;37.536;-122.304;2022-07-29T06:42:58;24.10;47.00
49793;DHT22;35690;37.536;-122.304;2022-07-29T06:45:25;24.20;46.90
49793;DHT22;35690;37.536;-122.304;2022-07-29T06:47:52;24.10;46.80
49793;DHT22;35690;37.536;-122.304;2022-07-29T06:50:19;24.20;46.90
49793;DHT22;35690;37.536;-122.304;2022-07-29T06:52:45;24.10;47.00
49793;DHT22;35690;37.536;-122.304;2022-07-29T06:55:11;24.10;47.10
49793;DHT22;35690;37.536;-122.304;2022-07-29T06:57:49;24.00;47.10
49793;DHT22;35690;37.536;-122.304;2022-07-29T07:00:16;24.10;47.20
49793;DHT22;35690;37.536;-122.304;2022-07-29T07:02:42;24.10;47.00
49793;DHT22;35690;37.536;-122.304;2022-07-29T07:05:08;24.00;47.20
49793;DHT22;35690;37.536;-122.304;2022-07-29T07:07:35;24.00;47.20
49793;DHT22;35690;37.536;-122.304;2022-07-29T07:10:01;24.00;47.30
49793;DHT22;35690;37.536;-122.304;2022-07-29T07:12:28;24.00;47.30
49793;DHT22;35690;37.536;-122.304;2022-07-29T07:14:54;24.00;47.30
49793;DHT22;35690;37.536;-122.304;2022-07-29T07:17:20;24.00;47.40
49793;DHT22;35690;37.536;-122.304;2022-07-29T07:19:47;24.00;47.30
49793;DHT22;35690;37.536;-122.304;2022-07-29T07:22:13;24.00;47.40
49793;DHT22;35690;37.536;-122.304;2022-07-29T07:24:39;24.10;47.30
49793;DHT22;35690;37.536;-122.304;2022-07-29T07:27:06;24.00;47.30
49793;DHT22;35690;37.536;-122.304;2022-07-29T07:29:32;24.00;47.40
49793;DHT22;35690;37.536;-122.304;2022-07-29T07:31:59;23.90;47.50
49793;DHT22;35690;37.536;-122.304;2022-07-29T07:34:25;24.10;47.30
49793;DHT22;35690;37.536;-122.304;2022-07-29T07:36:51;24.00;47.40
49793;DHT22;35690;37.536;-122.304;2022-07-29T07:39:18;23.80;47.50
49793;DHT22;35690;37.536;-122.304;2022-07-29T07:41:44;23.90;47.60
49793;DHT22;35690;37.536;-122.304;2022-07-29T07:44:10;24.00;47.60
49793;DHT22;35690;37.536;-122.304;2022-07-29T07:46:37;24.00;47.50
49793;DHT22;35690;37.536;-122.304;2022-07-29T07:49:03;23.90;47.60
49793;DHT22;35690;37.536;-122.304;2022-07-29T07:51:30;23.90;47.70
49793;DHT22;35690;37.536;-122.304;2022-07-29T07:53:56;23.90;47.80
49793;DHT22;35690;37.536;-122.304;2022-07-29T07:56:23;24.00;47.70
49793;DHT22;35690;37.536;-122.304;2022-07-29T07:58:49;23.90;47.80
49793;DHT22;35690;37.536;-122.304;2022-07-29T08:01:16;24.00;47.70
49793;DHT22;35690;37.536;-122.304;2022-07-29T08:03:44;23.90;47.90
49793;DHT22;35690;37.536;-122.304;2022-07-29T08:06:11;23.90;47.80
49793;DHT22;35690;37.536;-122.304;2022-07-29T08:08:37;23.90;47.80
49793;DHT22;35690;37.536;-122.304;2022-07-29T08:11:03;23.80;47.90
49793;DHT22;35690;37.536;-122.304;2022-07-29T08:13:30;23.80;47.90
49793;DHT22;35690;37.536;-122.304;2022-07-29T08:15:58;23.90;47.90
49793;DHT22;35690;37.536;-122.304;2022-07-29T08:18:36;23.90;47.90
49793;DHT22;35690;37.536;-122.304;2022-07-29T08:21:03;23.80;48.00
49793;DHT22;35690;37.536;-122.304;2022-07-29T08:23:29;23.90;47.90
49793;DHT22;35690;37.536;-122.304;2022-07-29T08:26:08;23.90;47.90
49793;DHT22;35690;37.536;-122.304;2022-07-29T08:28:42;23.90;48.10
49793;DHT22;35690;37.536;-122.304;2022-07-29T08:31:12;23.80;48.20
49793;DHT22;35690;37.536;-122.304;2022-07-29T08:33:39;23.80;48.10
49793;DHT22;35690;37.536;-122.304;2022-07-29T08:36:06;23.80;48.10
49793;DHT22;35690;37.536;-122.304;2022-07-29T08:38:32;23.80;48.10
49793;DHT22;35690;37.536;-122.304;2022-07-29T08:41:00;23.80;48.10
49793;DHT22;35690;37.536;-122.304;2022-07-29T08:43:28;23.80;48.20
49793;DHT22;35690;37.536;-122.304;2022-07-29T08:45:55;23.80;48.20
49793;DHT22;35690;37.536;-122.304;2022-07-29T08:48:22;23.80;48.20
49793;DHT22;35690;37.536;-122.304;2022-07-29T08:50:54;23.80;48.10
49793;DHT22;35690;37.536;-122.304;2022-07-29T08:53:21;23.80;48.30
49793;DHT22;35690;37.536;-122.304;2022-07-29T08:55:50;23.80;48.30
49793;DHT22;35690;37.536;-122.304;2022-07-29T08:58:17;23.70;48.40
49793;DHT22;35690;37.536;-122.304;2022-07-29T09:00:55;23.70;48.40
49793;DHT22;35690;37.536;-122.304;2022-07-29T09:03:30;23.70;48.40
49793;DHT22;35690;37.536;-122.304;2022-07-29T09:05:58;23.80;48.40
49793;DHT22;35690;37.536;-122.304;2022-07-29T09:08:25;23.70;48.50
49793;DHT22;35690;37.536;-122.304;2022-07-29T09:10:52;23.70;48.40
49793;DHT22;35690;37.536;-122.304;2022-07-29T09:13:19;23.70;48.50
49793;DHT22;35690;37.536;-122.304;2022-07-29T09:15:45;23.60;48.50
49793;DHT22;35690;37.536;-122.304;2022-07-29T09:18:11;23.70;48.50
49793;DHT22;35690;37.536;-122.304;2022-07-29T09:20:38;23.70;48.40
49793;DHT22;35690;37.536;-122.304;2022-07-29T09:23:23;23.80;48.40
49793;DHT22;35690;37.536;-122.304;2022-07-29T09:25:50;23.70;48.50
49793;DHT22;35690;37.536;-122.304;2022-07-29T09:28:18;23.70;49.20
49793;DHT22;35690;37.536;-122.304;2022-07-29T09:30:55;23.70;48.60
49793;DHT22;35690;37.536;-122.304;2022-07-29T09:33:22;23.70;48.60
49793;DHT22;35690;37.536;-122.304;2022-07-29T09:36:02;23.70;48.50
49793;DHT22;35690;37.536;-122.304;2022-07-29T09:38:30;23.70;48.50
49793;DHT22;35690;37.536;-122.304;2022-07-29T09:41:01;23.70;48.80
49793;DHT22;35690;37.536;-122.304;2022-07-29T09:43:28;23.70;48.60
49793;DHT22;35690;37.536;-122.304;2022-07-29T09:45:54;23.70;48.80
49793;DHT22;35690;37.536;-122.304;2022-07-29T09:48:23;23.60;48.70
49793;DHT22;35690;37.536;-122.304;2022-07-29T09:50:51;23.60;48.80
49793;DHT22;35690;37.536;-122.304;2022-07-29T09:53:35;23.60;48.70
49793;DHT22;35690;37.536;-122.304;2022-07-29T09:56:03;23.70;48.80
49793;DHT22;35690;37.536;-122.304;2022-07-29T09:58:30;23.60;49.00
49793;DHT22;35690;37.536;-122.304;2022-07-29T10:00:59;23.60;49.00
49793;DHT22;35690;37.536;-122.304;2022-07-29T10:03:26;23.50;49.00
49793;DHT22;35690;37.536;-122.304;2022-07-29T10:06:11;23.60;49.60
49793;DHT22;35690;37.536;-122.304;2022-07-29T10:08:39;23.60;48.90
49793;DHT22;35690;37.536;-122.304;2022-07-29T10:11:13;23.50;49.10
49793;DHT22;35690;37.536;-122.304;2022-07-29T10:13:40;23.60;49.00
49793;DHT22;35690;37.536;-122.304;2022-07-29T10:16:08;23.60;48.90
49793;DHT22;35690;37.536;-122.304;2022-07-29T10:18:35;23.60;48.90
49793;DHT22;35690;37.536;-122.304;2022-07-29T10:21:03;23.60;48.90
49793;DHT22;35690;37.536;-122.304;2022-07-29T10:23:30;23.60;49.00
49793;DHT22;35690;37.536;-122.304;2022-07-29T10:25:58;23.60;48.90
49793;DHT22;35690;37.536;-122.304;2022-07-29T10:28:24;23.60;49.00
49793;DHT22;35690;37.536;-122.304;2022-07-29T10:30:52;23.60;49.10
49793;DHT22;35690;37.536;-122.304;2022-07-29T10:33:47;23.60;49.00
49793;DHT22;35690;37.536;-122.304;2022-07-29T10:36:38;23.60;49.10
49793;DHT22;35690;37.536;-122.304;2022-07-29T10:40:03;23.50;49.20
49793;DHT22;35690;37.536;-122.304;2022-07-29T10:42:19;23.50;49.30
49793;DHT22;35690;37.536;-122.304;2022-07-29T10:44:49;23.50;49.30
49793;DHT22;35690;37.536;-122.304;2022-07-29T10:47:24;23.50;49.30
49793;DHT22;35690;37.536;-122.304;2022-07-29T10:50:00;23.50;49.30
49793;DHT22;35690;37.536;-122.304;2022-07-29T10:52:53;23.50;49.30
49793;DHT22;35690;37.536;-122.304;2022-07-29T10:55:42;23.50;49.30
49793;DHT22;35690;37.536;-122.304;2022-07-29T10:58:21;23.40;49.40
49793;DHT22;35690;37.536;-122.304;2022-07-29T11:00:53;23.40;49.40
49793;DHT22;35690;37.536;-122.304;2022-07-29T11:06:14;23.50;49.40
49793;DHT22;35690;37.536;-122.304;2022-07-29T11:08:41;23.40;49.50
49793;DHT22;35690;37.536;-122.304;2022-07-29T11:13:47;23.40;49.40
49793;DHT22;35690;37.536;-122.304;2022-07-29T11:16:20;23.50;49.50
49793;DHT22;35690;37.536;-122.304;2022-07-29T11:21:39;23.40;49.50
49793;DHT22;35690;37.536;-122.304;2022-07-29T11:24:25;23.40;49.60
49793;DHT22;35690;37.536;-122.304;2022-07-29T11:27:14;23.30;49.70
49793;DHT22;35690;37.536;-122.304;2022-07-29T11:29:55;23.40;49.60
49793;DHT22;35690;37.536;-122.304;2022-07-29T11:32:23;23.40;49.70
49793;DHT22;35690;37.536;-122.304;2022-07-29T11:35:11;23.30;49.70
49793;DHT22;35690;37.536;-122.304;2022-07-29T11:37:38;23.40;49.70
49793;DHT22;35690;37.536;-122.304;2022-07-29T11:42:41;23.30;49.70
49793;DHT22;35690;37.536;-122.304;2022-07-29T11:45:18;23.30;49.80
49793;DHT22;35690;37.536;-122.304;2022-07-29T11:47:52;23.30;49.90
49793;DHT22;35690;37.536;-122.304;2022-07-29T11:50:36;23.30;49.90
49793;DHT22;35690;37.536;-122.304;2022-07-29T11:53:10;23.30;49.90
49793;DHT22;35690;37.536;-122.304;2022-07-29T11:55:39;23.30;49.90
49793;DHT22;35690;37.536;-122.304;2022-07-29T11:58:05;23.30;49.90
49793;DHT22;35690;37.536;-122.304;2022-07-29T12:00:40;23.30;49.70
49793;DHT22;35690;37.536;-122.304;2022-07-29T12:03:10;23.40;49.80
49793;DHT22;35690;37.536;-122.304;2022-07-29T12:05:42;23.40;49.90
49793;DHT22;35690;37.536;-122.304;2022-07-29T12:10:39;23.30;50.00
49793;DHT22;35690;37.536;-122.304;2022-07-29T12:13:06;23.30;50.00
49793;DHT22;35690;37.536;-122.304;2022-07-29T12:15:33;23.20;50.00
49793;DHT22;35690;37.536;-122.304;2022-07-29T12:18:10;23.30;50.00
49793;DHT22;35690;37.536;-122.304;2022-07-29T12:20:37;23.20;50.00
49793;DHT22;35690;37.536;-122.304;2022-07-29T12:23:07;23.20;49.90
49793;DHT22;35690;37.536;-122.304;2022-07-29T12:25:38;23.20;49.90
49793;DHT22;35690;37.536;-122.304;2022-07-29T12:28:07;23.20;50.00
49793;DHT22;35690;37.536;-122.304;2022-07-29T12:30:45;23.20;50.10
49793;DHT22;35690;37.536;-122.304;2022-07-29T12:33:23;23.20;50.20
49793;DHT22;35690;37.536;-122.304;2022-07-29T12:36:01;23.20;50.10
49793;DHT22;35690;37.536;-122.304;2022-07-29T12:38:28;23.20;50.10
49793;DHT22;35690;37.536;-122.304;2022-07-29T12:40:58;23.20;50.10
49793;DHT22;35690;37.536;-122.304;2022-07-29T12:43:28;23.20;50.10
49793;DHT22;35690;37.536;-122.304;2022-07-29T12:45:56;23.30;50.10
49793;DHT22;35690;37.536;-122.304;2022-07-29T12:48:39;23.20;50.10
49793;DHT22;35690;37.536;-122.304;2022-07-29T12:51:06;23.20;50.20
49793;DHT22;35690;37.536;-122.304;2022-07-29T12:53:34;23.20;50.10
49793;DHT22;35690;37.536;-122.304;2022-07-29T12:56:01;23.20;50.20
49793;DHT22;35690;37.536;-122.304;2022-07-29T13:01:14;23.10;50.40
49793;DHT22;35690;37.536;-122.304;2022-07-29T13:06:29;23.20;50.30
49793;DHT22;35690;37.536;-122.304;2022-07-29T13:08:59;23.20;50.40
49793;DHT22;35690;37.536;-122.304;2022-07-29T13:11:34;23.10;50.50
49793;DHT22;35690;37.536;-122.304;2022-07-29T13:14:03;23.20;50.40
49793;DHT22;35690;37.536;-122.304;2022-07-29T13:16:29;23.10;50.30
49793;DHT22;35690;37.536;-122.304;2022-07-29T13:19:07;23.20;50.30
49793;DHT22;35690;37.536;-122.304;2022-07-29T13:21:34;23.20;50.30
49793;DHT22;35690;37.536;-122.304;2022-07-29T13:24:00;23.20;50.30
49793;DHT22;35690;37.536;-122.304;2022-07-29T13:26:27;23.10;50.30
49793;DHT22;35690;37.536;-122.304;2022-07-29T13:28:54;23.10;50.20
49793;DHT22;35690;37.536;-122.304;2022-07-29T13:31:21;23.10;50.30
49793;DHT22;35690;37.536;-122.304;2022-07-29T13:33:48;23.10;50.30
49793;DHT22;35690;37.536;-122.304;2022-07-29T13:36:14;23.10;50.20
49793;DHT22;35690;37.536;-122.304;2022-07-29T13:38:41;23.10;50.30
49793;DHT22;35690;37.536;-122.304;2022-07-29T13:41:07;23.20;50.30
49793;DHT22;35690;37.536;-122.304;2022-07-29T13:43:34;23.20;50.30
49793;DHT22;35690;37.536;-122.304;2022-07-29T13:46:00;23.20;50.20
49793;DHT22;35690;37.536;-122.304;2022-07-29T13:48:27;23.10;50.20
49793;DHT22;35690;37.536;-122.304;2022-07-29T13:50:53;23.10;50.50
49793;DHT22;35690;37.536;-122.304;2022-07-29T13:53:20;23.00;50.30
49793;DHT22;35690;37.536;-122.304;2022-07-29T13:55:46;23.00;50.40
49793;DHT22;35690;37.536;-122.304;2022-07-29T13:58:12;23.00;50.40
49793;DHT22;35690;37.536;-122.304;2022-07-29T14:00:39;23.10;50.50
49793;DHT22;35690;37.536;-122.304;2022-07-29T14:03:05;23.00;50.40
49793;DHT22;35690;37.536;-122.304;2022-07-29T14:05:33;23.00;50.60
49793;DHT22;35690;37.536;-122.304;2022-07-29T14:07:59;23.00;50.70
49793;DHT22;35690;37.536;-122.304;2022-07-29T14:10:30;23.00;51.10
49793;DHT22;35690;37.536;-122.304;2022-07-29T14:12:56;23.00;50.60
49793;DHT22;35690;37.536;-122.304;2022-07-29T14:15:22;23.00;50.60
49793;DHT22;35690;37.536;-122.304;2022-07-29T14:17:52;23.00;50.70
49793;DHT22;35690;37.536;-122.304;2022-07-29T14:20:19;22.90;50.70
49793;DHT22;35690;37.536;-122.304;2022-07-29T14:22:45;22.90;50.70
49793;DHT22;35690;37.536;-122.304;2022-07-29T14:25:11;22.90;50.80
49793;DHT22;35690;37.536;-122.304;2022-07-29T14:27:38;22.80;51.00
49793;DHT22;35690;37.536;-122.304;2022-07-29T14:30:05;22.80;50.80
49793;DHT22;35690;37.536;-122.304;2022-07-29T14:32:32;22.90;50.90
49793;DHT22;35690;37.536;-122.304;2022-07-29T14:34:58;22.90;50.80
49793;DHT22;35690;37.536;-122.304;2022-07-29T14:37:45;22.90;50.60
49793;DHT22;35690;37.536;-122.304;2022-07-29T14:40:11;23.00;50.70
49793;DHT22;35690;37.536;-122.304;2022-07-29T14:42:38;23.00;50.70
49793;DHT22;35690;37.536;-122.304;2022-07-29T14:45:09;23.10;50.80
49793;DHT22;35690;37.536;-122.304;2022-07-29T14:47:37;23.20;50.50
49793;DHT22;35690;37.536;-122.304;2022-07-29T14:50:05;23.20;50.40
49793;DHT22;35690;37.536;-122.304;2022-07-29T14:52:31;23.30;50.30
49793;DHT22;35690;37.536;-122.304;2022-07-29T14:54:58;23.30;50.20
49793;DHT22;35690;37.536;-122.304;2022-07-29T14:57:25;23.30;50.20
49793;DHT22;35690;37.536;-122.304;2022-07-29T14:59:51;23.30;50.40
49793;DHT22;35690;37.536;-122.304;2022-07-29T15:02:18;23.30;50.30
49793;DHT22;35690;37.536;-122.304;2022-07-29T15:04:44;23.40;50.50
49793;DHT22;35690;37.536;-122.304;2022-07-29T15:07:12;23.40;50.50
49793;DHT22;35690;37.536;-122.304;2022-07-29T15:09:38;23.40;50.50
49793;DHT22;35690;37.536;-122.304;2022-07-29T15:12:04;23.30;50.60
49793;DHT22;35690;37.536;-122.304;2022-07-29T15:14:31;23.40;50.50
49793;DHT22;35690;37.536;-122.304;2022-07-29T15:16:58;23.40;50.50
49793;DHT22;35690;37.536;-122.304;2022-07-29T15:19:24;23.40;50.50
49793;DHT22;35690;37.536;-122.304;2022-07-29T15:21:50;23.40;50.70
49793;DHT22;35690;37.536;-122.304;2022-07-29T15:24:17;23.40;50.70
49793;DHT22;35690;37.536;-122.304;2022-07-29T15:26:44;23.50;50.60
49793;DHT22;35690;37.536;-122.304;2022-07-29T15:29:11;23.40;50.50
49793;DHT22;35690;37.536;-122.304;2022-07-29T15:31:39;23.40;50.60